Time;durP1;ratioP1;P1;durP2;ratioP2;P2;SDS_P1;SDS_P2;PMS_P1;PMS_P2;Temp;Humidity;BMP_temperature;BMP_pressure;BME280_temperature;BME280_humidity;BME280_pressure;Samples;Min_cycle;Max_cycle;Signal;HPM_P1;HPM_P2
2021/10/07 00:00:46;;;;;;;8.13;1.05;;;9.70;99.90;;;;;;5017214;28;20041;-78
2021/10/07 00:03:11;;;;;;;2.33;0.40;;;9.60;99.90;;;;;;5017094;28;20026;-78
2021/10/07 00:05:37;;;;;;;2.60;0.20;;;9.50;99.90;;;;;;5017474;28;20372;-79
2021/10/07 00:08:03;;;;;;;1.27;0.25;;;9.40;99.90;;;;;;5017644;28;20026;-78
2021/10/07 00:10:29;;;;;;;3.80;0.30;;;9.40;99.90;;;;;;5018313;28;20033;-78
2021/10/07 00:12:54;;;;;;;5.95;0.55;;;9.40;99.90;;;;;;5018857;28;20483;-79
2021/10/07 00:15:20;;;;;;;3.05;0.30;;;9.40;99.90;;;;;;5017680;28;20022;-79
2021/10/07 00:17:46;;;;;;;30.63;0.95;;;9.30;99.90;;;;;;5018163;28;20117;-79
2021/10/07 00:20:14;;;;;;;3.13;0.20;;;9.30;99.90;;;;;;5018285;28;20029;-78
2021/10/07 00:22:40;;;;;;;2.33;0.20;;;9.30;99.90;;;;;;5018226;28;20483;-79
2021/10/07 00:25:13;;;;;;;2.55;0.40;;;9.30;99.90;;;;;;5018032;28;20416;-79
2021/10/07 00:27:39;;;;;;;4.38;0.35;;;9.20;99.90;;;;;;5016678;28;20026;-78
2021/10/07 00:30:19;;;;;;;110.55;2.97;;;9.20;99.90;;;;;;5016592;28;20379;-79
2021/10/07 00:32:52;;;;;;;5.93;0.40;;;9.20;99.90;;;;;;5016393;28;20026;-79
2021/10/07 00:35:35;;;;;;;6.40;0.60;;;9.10;99.90;;;;;;5016347;28;20030;-79
2021/10/07 00:40:51;;;;;;;80.28;2.78;;;9.10;99.90;;;;;;4998947;28;20036;-78
2021/10/07 00:43:17;;;;;;;6.90;0.90;;;9.10;99.90;;;;;;5018085;28;20085;-78
2021/10/07 00:45:50;;;;;;;5.90;0.60;;;9.10;99.90;;;;;;5019936;28;20025;-79
2021/10/07 00:48:15;;;;;;;1.70;0.10;;;9.00;99.90;;;;;;5019205;28;20030;-79
2021/10/07 00:50:41;;;;;;;1.30;0.20;;;9.00;99.90;;;;;;5016127;28;20049;-78
2021/10/07 00:53:06;;;;;;;6.10;0.70;;;9.00;99.90;;;;;;5016629;28;20108;-79
2021/10/07 00:55:32;;;;;;;7.25;0.20;;;9.00;99.90;;;;;;5016641;28;20386;-78
2021/10/07 00:57:58;;;;;;;124.57;3.67;;;9.00;99.90;;;;;;5016327;28;20026;-77
2021/10/07 01:00:23;;;;;;;1.98;0.32;;;9.00;99.90;;;;;;5017773;28;20028;-78
2021/10/07 01:02:49;;;;;;;9.38;0.30;;;8.90;99.90;;;;;;5016643;28;20026;-78
2021/10/07 01:05:15;;;;;;;3.67;0.75;;;8.80;99.90;;;;;;5017348;28;20030;-79
2021/10/07 01:07:40;;;;;;;2.35;0.13;;;8.80;99.90;;;;;;5017941;28;20076;-79
2021/10/07 01:10:06;;;;;;;2.63;0.40;;;8.80;99.90;;;;;;5016923;28;20018;-79
2021/10/07 01:12:32;;;;;;;1.65;0.50;;;8.70;99.90;;;;;;4998062;28;20500;-78
2021/10/07 01:14:58;;;;;;;3.42;0.55;;;8.80;99.90;;;;;;5009614;28;20044;-79
2021/10/07 01:17:29;;;;;;;6.30;0.60;;;8.80;99.90;;;;;;5018445;28;20050;-79
2021/10/07 01:20:00;;;;;;;140.57;4.00;;;8.80;99.90;;;;;;5019434;28;20058;-79
2021/10/07 01:22:28;;;;;;;12.68;1.25;;;8.80;99.90;;;;;;5019128;28;20030;-80
2021/10/07 01:24:55;;;;;;;2.75;0.60;;;8.70;99.90;;;;;;5019471;28;20029;-79
2021/10/07 01:27:23;;;;;;;3.15;0.25;;;8.60;99.90;;;;;;5018209;28;20037;-79
2021/10/07 01:29:57;;;;;;;13.70;0.70;;;8.60;99.90;;;;;;5018655;28;20453;-79
2021/10/07 01:32:24;;;;;;;2.63;0.52;;;8.60;99.90;;;;;;5018295;28;20119;-80
2021/10/07 01:34:50;;;;;;;2.45;0.40;;;8.50;99.90;;;;;;5020137;28;20030;-79
2021/10/07 01:37:15;;;;;;;2.45;0.20;;;8.60;99.90;;;;;;5019219;28;20076;-80
2021/10/07 01:39:42;;;;;;;2.40;0.60;;;8.60;99.90;;;;;;5018276;28;20049;-80
2021/10/07 01:42:08;;;;;;;4.63;0.77;;;8.60;99.90;;;;;;5018331;28;20228;-79
2021/10/07 01:44:34;;;;;;;3.33;0.52;;;8.50;99.90;;;;;;5018453;28;20053;-80
2021/10/07 01:47:00;;;;;;;1.80;0.40;;;8.50;99.90;;;;;;5015955;28;20018;-78
2021/10/07 01:49:26;;;;;;;4.13;0.68;;;8.50;99.90;;;;;;5015287;28;20034;-78
2021/10/07 01:51:52;;;;;;;1.60;0.40;;;8.50;99.90;;;;;;5016817;28;20471;-78
2021/10/07 01:54:20;;;;;;;4.80;1.48;;;8.50;99.90;;;;;;5016110;28;20029;-78
2021/10/07 01:56:46;;;;;;;1.45;0.40;;;8.50;99.90;;;;;;5016948;28;20026;-79
2021/10/07 01:59:11;;;;;;;6.18;0.65;;;8.50;99.90;;;;;;5017658;28;20559;-77
2021/10/07 02:01:37;;;;;;;1.25;0.10;;;8.40;99.90;;;;;;5019248;28;20375;-79
2021/10/07 02:04:04;;;;;;;1.95;0.10;;;8.40;99.90;;;;;;5022407;28;20041;-79
2021/10/07 02:06:30;;;;;;;1.83;0.63;;;8.30;99.90;;;;;;5019571;28;20120;-78
2021/10/07 02:08:56;;;;;;;3.70;0.57;;;9.00;99.90;;;;;;5019873;28;20079;-79
2021/10/07 02:11:21;;;;;;;3.85;0.15;;;8.30;99.90;;;;;;5018851;28;20022;-78
2021/10/07 02:13:47;;;;;;;2.45;0.13;;;8.30;99.90;;;;;;5020282;28;20054;-78
2021/10/07 02:16:13;;;;;;;7.20;0.35;;;8.30;99.90;;;;;;5019155;28;20061;-78
2021/10/07 02:18:38;;;;;;;3.17;0.85;;;9.30;99.90;;;;;;5018943;28;20546;-78
2021/10/07 02:21:04;;;;;;;4.13;0.40;;;8.30;99.90;;;;;;5018564;28;20449;-78
2021/10/07 02:23:30;;;;;;;1.65;0.38;;;8.30;99.90;;;;;;5020270;28;20471;-78
2021/10/07 02:25:56;;;;;;;4.63;0.22;;;8.30;99.90;;;;;;5018921;28;20026;-78
2021/10/07 02:28:21;;;;;;;4.63;0.88;;;9.10;99.90;;;;;;5018899;28;20021;-79
2021/10/07 02:30:47;;;;;;;2.35;0.22;;;8.20;99.90;;;;;;5019672;28;20018;-78
2021/10/07 02:33:13;;;;;;;2.50;0.52;;;8.30;99.90;;;;;;5018369;28;20050;-79
2021/10/07 02:35:40;;;;;;;2.08;0.60;;;8.30;99.90;;;;;;5018760;28;20026;-79
2021/10/07 02:38:05;;;;;;;3.30;0.50;;;8.30;99.90;;;;;;5018327;28;20502;-79
2021/10/07 02:40:32;;;;;;;16.48;1.30;;;8.30;99.90;;;;;;5018352;28;20030;-79
2021/10/07 02:42:58;;;;;;;6.78;0.95;;;8.40;99.90;;;;;;5020351;28;20030;-79
2021/10/07 02:45:25;;;;;;;5.13;0.82;;;8.40;99.90;;;;;;5020262;28;20026;-77
2021/10/07 02:47:51;;;;;;;4.35;0.88;;;8.50;99.90;;;;;;5018563;28;20028;-77
2021/10/07 02:50:22;;;;;;;7.45;1.08;;;8.50;99.90;;;;;;5018248;28;20113;-77
2021/10/07 02:52:48;;;;;;;4.75;0.75;;;8.50;99.90;;;;;;5000151;28;20022;-77
2021/10/07 02:55:14;;;;;;;5.78;1.35;;;8.50;99.90;;;;;;4998988;28;20023;-77
2021/10/07 02:57:45;;;;;;;4.82;1.25;;;8.50;99.90;;;;;;5000821;28;20026;-78
2021/10/07 03:00:12;;;;;;;16.13;1.52;;;8.40;99.90;;;;;;5001174;28;20018;-77
2021/10/07 03:02:38;;;;;;;10.18;1.40;;;8.40;99.90;;;;;;5018779;28;20041;-78
2021/10/07 03:05:04;;;;;;;2.63;0.80;;;8.40;99.90;;;;;;5019565;28;20483;-78
2021/10/07 03:07:30;;;;;;;3.65;0.40;;;8.40;99.90;;;;;;5019872;28;20029;-76
2021/10/07 03:09:55;;;;;;;2.88;0.90;;;8.40;99.90;;;;;;5018126;28;20360;-78
2021/10/07 03:12:21;;;;;;;4.95;0.80;;;8.30;99.90;;;;;;5019586;28;20022;-77
2021/10/07 03:14:47;;;;;;;6.78;0.90;;;8.30;99.90;;;;;;5018654;28;20080;-77
2021/10/07 03:17:12;;;;;;;4.25;0.73;;;8.30;99.90;;;;;;5017829;28;20442;-77
2021/10/07 03:19:39;;;;;;;10.55;0.70;;;8.30;99.90;;;;;;5019205;28;20491;-77
2021/10/07 03:22:06;;;;;;;14.77;0.85;;;8.30;99.90;;;;;;5019353;28;20141;-76
2021/10/07 03:24:32;;;;;;;1.88;0.85;;;8.20;99.90;;;;;;5019631;28;20022;-77
2021/10/07 03:26:57;;;;;;;3.30;0.40;;;8.30;99.90;;;;;;5017452;28;20018;-77
2021/10/07 03:29:23;;;;;;;6.22;0.60;;;8.20;99.90;;;;;;5018941;28;20467;-77
2021/10/07 03:31:49;;;;;;;5.82;0.47;;;8.20;99.90;;;;;;5017705;28;20022;-76
2021/10/07 03:34:14;;;;;;;3.15;0.65;;;8.20;99.90;;;;;;5018872;28;20030;-76
2021/10/07 03:36:40;;;;;;;1.90;0.63;;;8.20;99.90;;;;;;5019076;28;20426;-77
2021/10/07 03:39:06;;;;;;;1.15;0.70;;;8.20;99.90;;;;;;5018583;28;20026;-76
2021/10/07 03:41:31;;;;;;;4.03;0.50;;;8.20;99.90;;;;;;5017736;28;20064;-76
2021/10/07 03:43:57;;;;;;;1.40;0.38;;;8.20;99.90;;;;;;5018121;28;20076;-77
2021/10/07 03:46:22;;;;;;;2.92;0.40;;;8.20;99.90;;;;;;5018440;28;20018;-76
2021/10/07 03:48:48;;;;;;;3.78;0.40;;;8.10;99.90;;;;;;5018343;28;20101;-76
2021/10/07 03:51:20;;;;;;;1.90;0.35;;;8.10;99.90;;;;;;5017045;28;20483;-76
2021/10/07 03:53:45;;;;;;;1.95;0.57;;;8.00;99.90;;;;;;5018636;28;20049;-76
2021/10/07 03:56:11;;;;;;;2.63;0.38;;;8.00;99.90;;;;;;5018322;28;20483;-76
2021/10/07 03:58:37;;;;;;;0.88;0.28;;;8.00;99.90;;;;;;5018594;28;20061;-76
2021/10/07 04:01:02;;;;;;;2.08;0.85;;;8.00;99.90;;;;;;5017753;28;20065;-77
2021/10/07 04:03:28;;;;;;;3.05;0.30;;;8.00;99.90;;;;;;5018337;28;20084;-77
2021/10/07 04:05:58;;;;;;;2.55;0.90;;;8.00;99.90;;;;;;5016810;28;20546;-77
2021/10/07 04:08:23;;;;;;;1.98;0.73;;;7.90;99.90;;;;;;5019023;28;20037;-78
2021/10/07 04:10:52;;;;;;;3.45;0.82;;;7.90;99.90;;;;;;5017286;28;20021;-77
2021/10/07 04:13:22;;;;;;;4.57;0.98;;;7.90;99.90;;;;;;5017298;28;20483;-78
2021/10/07 04:15:48;;;;;;;3.28;0.80;;;7.90;99.90;;;;;;5018761;28;20034;-77
2021/10/07 04:18:15;;;;;;;2.65;0.93;;;7.90;99.90;;;;;;5019202;28;20076;-77
2021/10/07 04:20:42;;;;;;;3.92;0.88;;;7.90;99.90;;;;;;5018000;28;20057;-78
2021/10/07 04:23:08;;;;;;;3.35;1.17;;;7.90;99.90;;;;;;5017468;28;20034;-77
2021/10/07 04:25:34;;;;;;;4.40;1.10;;;7.90;99.90;;;;;;5018071;28;20076;-78
2021/10/07 04:28:01;;;;;;;4.32;0.70;;;7.90;99.90;;;;;;5018116;28;20026;-78
2021/10/07 04:30:27;;;;;;;4.85;0.98;;;7.90;99.90;;;;;;5018205;28;20085;-77
2021/10/07 04:32:52;;;;;;;3.60;0.90;;;7.90;99.90;;;;;;5018914;28;20061;-78
2021/10/07 04:35:18;;;;;;;3.50;1.02;;;7.90;99.90;;;;;;5023634;28;20042;-80
2021/10/07 04:37:44;;;;;;;2.67;1.00;;;7.90;99.90;;;;;;5023614;28;20022;-80
2021/10/07 04:40:10;;;;;;;3.08;1.00;;;7.80;99.90;;;;;;5022595;28;20029;-80
2021/10/07 04:42:36;;;;;;;3.10;0.98;;;7.80;99.90;;;;;;5024422;28;20533;-79
2021/10/07 04:45:02;;;;;;;24.38;1.50;;;7.80;99.90;;;;;;5022731;28;20031;-79
2021/10/07 04:47:30;;;;;;;1.23;0.43;;;7.70;99.90;;;;;;5019345;28;20665;-79
2021/10/07 04:49:56;;;;;;;3.63;1.05;;;7.80;99.90;;;;;;5019275;28;20025;-79
2021/10/07 04:52:22;;;;;;;3.10;1.02;;;7.80;99.90;;;;;;5020196;28;20383;-79
2021/10/07 04:54:48;;;;;;;5.65;1.45;;;7.80;99.90;;;;;;5023466;28;20032;-80
2021/10/07 04:57:13;;;;;;;3.58;0.90;;;7.70;99.90;;;;;;5024880;28;20022;-80
2021/10/07 04:59:39;;;;;;;2.22;1.25;;;7.80;99.90;;;;;;5024177;28;20033;-80
2021/10/07 05:02:05;;;;;;;3.17;1.20;;;7.70;99.90;;;;;;5022485;28;20034;-79
2021/10/07 05:04:31;;;;;;;8.93;1.65;;;7.70;99.90;;;;;;5020199;28;20034;-78
2021/10/07 05:06:56;;;;;;;2.35;0.95;;;7.70;99.90;;;;;;5020633;28;20018;-79
2021/10/07 05:09:22;;;;;;;2.75;1.23;;;7.70;99.90;;;;;;5019735;28;20030;-79
2021/10/07 05:11:47;;;;;;;7.07;1.65;;;7.70;99.90;;;;;;5021496;28;20061;-79
2021/10/07 05:14:13;;;;;;;8.68;1.98;;;7.60;99.90;;;;;;5021608;28;20026;-80
2021/10/07 05:16:38;;;;;;;4.22;2.00;;;7.70;99.90;;;;;;5023680;28;20022;-80
2021/10/07 05:19:04;;;;;;;9.63;2.25;;;7.70;99.90;;;;;;5022812;28;20049;-80
2021/10/07 05:21:30;;;;;;;5.53;2.85;;;7.70;99.90;;;;;;5022819;28;20451;-80
2021/10/07 05:23:56;;;;;;;8.57;2.53;;;7.70;99.90;;;;;;5023291;28;20030;-79
2021/10/07 05:26:22;;;;;;;7.55;2.17;;;7.70;99.90;;;;;;5016368;28;20025;-78
2021/10/07 05:28:47;;;;;;;8.93;2.90;;;7.70;99.90;;;;;;5017052;28;20014;-79
2021/10/07 05:31:13;;;;;;;7.75;2.42;;;7.70;99.90;;;;;;5017904;28;20069;-78
2021/10/07 05:33:39;;;;;;;10.77;2.58;;;7.70;99.90;;;;;;5018789;28;20030;-80
2021/10/07 05:36:05;;;;;;;9.93;2.38;;;7.80;99.90;;;;;;5022053;28;20026;-79
2021/10/07 05:38:31;;;;;;;8.30;2.13;;;7.80;99.90;;;;;;5019119;28;20026;-76
2021/10/07 05:40:56;;;;;;;6.35;2.33;;;7.90;99.90;;;;;;5020134;28;20390;-77
2021/10/07 05:43:22;;;;;;;12.80;2.60;;;7.90;99.90;;;;;;5023111;28;20395;-79
2021/10/07 05:45:47;;;;;;;7.32;2.53;;;7.90;99.90;;;;;;5023729;28;20053;-79
2021/10/07 05:48:13;;;;;;;9.50;2.55;;;7.90;99.90;;;;;;5025629;28;20026;-79
2021/10/07 05:50:38;;;;;;;7.43;2.38;;;7.90;99.90;;;;;;5025586;28;20510;-79
2021/10/07 05:53:04;;;;;;;5.57;2.15;;;7.90;99.90;;;;;;5021280;28;20022;-79
2021/10/07 05:55:30;;;;;;;7.80;1.80;;;7.90;99.90;;;;;;5020297;28;20077;-78
2021/10/07 05:57:55;;;;;;;6.95;1.77;;;7.90;99.90;;;;;;5019755;28;20030;-76
2021/10/07 06:00:22;;;;;;;10.30;2.63;;;7.90;99.90;;;;;;5019213;28;20096;-77
2021/10/07 06:02:48;;;;;;;31.73;3.08;;;7.90;99.90;;;;;;5019848;28;20388;-78
2021/10/07 06:05:14;;;;;;;6.70;2.60;;;8.00;99.90;;;;;;5019851;28;20029;-78
2021/10/07 06:07:40;;;;;;;9.35;2.85;;;8.00;99.90;;;;;;5019836;28;20029;-78
2021/10/07 06:10:08;;;;;;;13.57;2.97;;;8.00;99.90;;;;;;5018287;28;20606;-78
2021/10/07 06:12:34;;;;;;;10.85;2.90;;;8.00;99.90;;;;;;5018626;28;20029;-78
2021/10/07 06:15:00;;;;;;;14.20;3.03;;;8.10;99.90;;;;;;5019936;28;20026;-78
2021/10/07 06:17:25;;;;;;;10.98;3.72;;;8.20;99.90;;;;;;5018491;28;20025;-78
2021/10/07 06:19:56;;;;;;;20.00;4.38;;;8.30;99.90;;;;;;5017414;28;20395;-77
2021/10/07 06:22:21;;;;;;;26.90;3.30;;;8.40;99.90;;;;;;5018379;28;20558;-77
2021/10/07 06:24:47;;;;;;;10.73;3.47;;;8.40;99.90;;;;;;5019981;28;20022;-78
2021/10/07 06:27:13;;;;;;;11.05;3.50;;;8.50;99.90;;;;;;5020019;28;20076;-78
2021/10/07 06:29:38;;;;;;;10.73;2.97;;;8.60;99.90;;;;;;5019631;28;20026;-78
2021/10/07 06:32:04;;;;;;;11.95;3.17;;;8.70;99.90;;;;;;5019365;28;20395;-77
2021/10/07 06:34:30;;;;;;;11.90;2.88;;;8.80;99.90;;;;;;5019745;28;20105;-77
2021/10/07 06:36:55;;;;;;;9.75;3.30;;;8.80;99.90;;;;;;5020576;28;20585;-77
2021/10/07 06:39:21;;;;;;;9.32;3.83;;;8.90;99.90;;;;;;5018156;28;20022;-77
2021/10/07 06:41:47;;;;;;;12.15;2.55;;;8.90;99.90;;;;;;5018101;28;20034;-77
2021/10/07 06:44:13;;;;;;;8.38;2.28;;;8.90;99.90;;;;;;5017798;28;20026;-77
2021/10/07 06:46:39;;;;;;;17.92;3.53;;;9.00;99.90;;;;;;5018588;28;20029;-77
2021/10/07 06:49:04;;;;;;;9.13;2.47;;;9.10;99.90;;;;;;5019786;28;20494;-78
2021/10/07 06:51:30;;;;;;;8.60;2.55;;;9.10;99.90;;;;;;5018637;28;20084;-79
2021/10/07 06:53:58;;;;;;;17.00;3.05;;;9.30;99.90;;;;;;5018925;28;20399;-77
2021/10/07 06:56:24;;;;;;;13.07;3.07;;;9.30;99.90;;;;;;5019781;28;20420;-77
2021/10/07 06:58:53;;;;;;;13.00;3.05;;;9.40;99.90;;;;;;5017833;28;20018;-77
2021/10/07 07:01:20;;;;;;;13.45;2.45;;;9.50;99.90;;;;;;5020001;28;20442;-78
2021/10/07 07:03:52;;;;;;;16.48;2.38;;;9.60;99.90;;;;;;5018235;28;20022;-79
2021/10/07 07:06:18;;;;;;;18.45;3.10;;;9.70;99.90;;;;;;5019205;28;20036;-78
2021/10/07 07:08:44;;;;;;;15.48;3.40;;;9.90;99.90;;;;;;5018026;28;20060;-78
2021/10/07 07:11:10;;;;;;;16.45;3.95;;;9.90;99.90;;;;;;5020237;28;20054;-78
2021/10/07 07:13:35;;;;;;;10.63;3.65;;;10.10;99.90;;;;;;5019366;28;20029;-78
2021/10/07 07:16:01;;;;;;;15.65;3.78;;;10.20;99.90;;;;;;5018810;28;20113;-79
2021/10/07 07:18:27;;;;;;;14.15;2.80;;;10.30;99.90;;;;;;5014436;28;20073;-78
2021/10/07 07:20:52;;;;;;;13.93;3.75;;;10.40;99.90;;;;;;5015773;28;20104;-77
2021/10/07 07:23:18;;;;;;;13.80;3.53;;;10.60;99.90;;;;;;5014298;28;20036;-77
2021/10/07 07:25:44;;;;;;;16.70;5.30;;;10.70;99.90;;;;;;5014213;28;20092;-78
2021/10/07 07:28:10;;;;;;;14.52;3.45;;;10.80;99.90;;;;;;5015370;28;20030;-77
2021/10/07 07:30:36;;;;;;;10.57;3.00;;;10.90;99.90;;;;;;5014901;28;20079;-77
2021/10/07 07:33:02;;;;;;;13.15;3.83;;;11.10;99.90;;;;;;5013848;28;20122;-76
2021/10/07 07:35:31;;;;;;;10.82;2.85;;;11.10;99.90;;;;;;5013963;28;20627;-74
2021/10/07 07:37:58;;;;;;;13.15;2.90;;;11.10;99.90;;;;;;5015673;28;20025;-76
2021/10/07 07:40:24;;;;;;;8.50;2.38;;;11.20;99.90;;;;;;5015112;28;20072;-75
2021/10/07 07:42:49;;;;;;;7.30;2.67;;;11.30;99.90;;;;;;5014897;28;20038;-75
2021/10/07 07:45:15;;;;;;;8.95;2.58;;;11.40;99.90;;;;;;5013576;28;20032;-74
2021/10/07 07:47:41;;;;;;;11.52;3.90;;;11.50;99.90;;;;;;5014927;28;20430;-75
2021/10/07 07:50:12;;;;;;;11.23;3.53;;;11.60;99.90;;;;;;5013830;28;20022;-75
2021/10/07 07:52:38;;;;;;;7.40;2.92;;;11.80;99.90;;;;;;5014861;28;20030;-74
2021/10/07 07:55:05;;;;;;;8.82;2.95;;;12.00;99.90;;;;;;5014821;28;20544;-74
2021/10/07 07:57:31;;;;;;;9.73;3.38;;;12.10;99.90;;;;;;5014035;28;20041;-74
2021/10/07 07:59:56;;;;;;;7.57;3.30;;;12.30;99.90;;;;;;5014612;28;20026;-73
2021/10/07 08:02:22;;;;;;;9.10;3.38;;;12.40;99.90;;;;;;5014629;28;20044;-77
2021/10/07 08:04:47;;;;;;;6.88;2.47;;;12.60;99.90;;;;;;5013279;28;20105;-74
2021/10/07 08:07:14;;;;;;;5.72;2.50;;;12.80;99.90;;;;;;5014630;28;20097;-74
2021/10/07 08:09:44;;;;;;;7.25;2.58;;;13.00;99.90;;;;;;5014464;28;20026;-74
2021/10/07 08:12:16;;;;;;;8.85;3.35;;;13.20;99.90;;;;;;5014492;28;20029;-74
2021/10/07 08:14:44;;;;;;;8.43;2.63;;;13.40;99.90;;;;;;5014342;28;20022;-73
2021/10/07 08:17:10;;;;;;;8.48;3.10;;;13.60;99.90;;;;;;5014286;28;20026;-73
2021/10/07 08:19:36;;;;;;;9.50;2.25;;;13.70;99.90;;;;;;5014543;28;20463;-72
2021/10/07 08:22:03;;;;;;;5.03;2.13;;;13.80;99.90;;;;;;5013103;28;20026;-75
2021/10/07 08:24:29;;;;;;;4.35;1.60;;;14.00;99.90;;;;;;5012902;28;20030;-74
2021/10/07 08:26:55;;;;;;;3.70;1.58;;;14.00;99.90;;;;;;5012972;28;20103;-76
2021/10/07 08:29:20;;;;;;;5.05;1.65;;;14.10;99.90;;;;;;5014285;28;20459;-76
2021/10/07 08:31:46;;;;;;;4.47;1.70;;;14.20;99.90;;;;;;5014082;28;20391;-76
2021/10/07 08:34:12;;;;;;;2.35;1.10;;;14.30;99.90;;;;;;5014231;28;20123;-76
2021/10/07 08:36:42;;;;;;;2.75;1.35;;;14.40;99.90;;;;;;5012887;28;20135;-76
2021/10/07 08:39:12;;;;;;;4.32;0.70;;;14.40;99.90;;;;;;5012664;28;20033;-76
2021/10/07 08:41:38;;;;;;;3.38;0.90;;;14.40;99.90;;;;;;5013061;28;20026;-76
2021/10/07 08:44:04;;;;;;;2.10;0.50;;;14.40;99.90;;;;;;5013986;28;20398;-76
2021/10/07 08:46:30;;;;;;;2.00;0.65;;;14.40;99.90;;;;;;5013884;28;20034;-76
2021/10/07 08:48:56;;;;;;;4.38;1.80;;;14.50;99.90;;;;;;5013834;28;20022;-76
2021/10/07 08:51:22;;;;;;;2.70;1.10;;;14.50;99.90;;;;;;5013799;28;20037;-76
2021/10/07 08:53:48;;;;;;;2.83;1.00;;;14.40;99.90;;;;;;5013812;28;20029;-76
2021/10/07 08:56:13;;;;;;;6.43;1.08;;;14.40;99.90;;;;;;5012539;28;20445;-76
2021/10/07 08:58:39;;;;;;;2.90;1.63;;;14.40;99.90;;;;;;5013852;28;20029;-74
2021/10/07 09:01:06;;;;;;;6.85;2.10;;;14.60;99.90;;;;;;5012378;28;20029;-74
2021/10/07 09:03:38;;;;;;;4.97;1.90;;;14.70;99.90;;;;;;5013644;28;20029;-74
2021/10/07 09:06:13;;;;;;;4.80;1.77;;;14.70;99.90;;;;;;5013923;28;20030;-73
2021/10/07 09:08:46;;;;;;;7.03;1.80;;;14.80;99.90;;;;;;5013638;28;20423;-76
2021/10/07 09:11:28;;;;;;;6.35;1.88;;;15.00;99.90;;;;;;5012265;28;20109;-76
2021/10/07 09:14:13;;;;;;;4.00;1.58;;;15.00;99.90;;;;;;5013727;28;20065;-76
2021/10/07 09:16:47;;;;;;;5.43;2.35;;;15.10;99.90;;;;;;5013863;28;20026;-76
2021/10/07 09:19:15;;;;;;;5.35;2.28;;;15.20;99.90;;;;;;5012285;28;20018;-76
2021/10/07 09:21:41;;;;;;;6.18;2.10;;;15.30;99.90;;;;;;5012289;28;20431;-76
2021/10/07 09:24:34;;;;;;;4.30;1.60;;;15.40;99.90;;;;;;5013516;28;20022;-76
2021/10/07 09:27:02;;;;;;;6.13;1.33;;;15.40;99.90;;;;;;5014043;28;20029;-76
2021/10/07 09:29:38;;;;;;;5.80;1.00;;;15.30;99.90;;;;;;5013326;28;20039;-76
2021/10/07 09:32:05;;;;;;;6.57;1.27;;;15.40;99.90;;;;;;5013388;28;20037;-76
2021/10/07 09:34:43;;;;;;;2.28;0.30;;;15.40;99.90;;;;;;5012290;28;20021;-77
2021/10/07 09:37:20;;;;;;;4.38;0.40;;;15.40;99.90;;;;;;5012334;28;20034;-75
2021/10/07 09:39:54;;;;;;;1.40;0.40;;;15.50;99.90;;;;;;5012158;28;20052;-75
2021/10/07 09:42:23;;;;;;;7.97;0.65;;;15.50;99.90;;;;;;5012242;28;20386;-75
2021/10/07 09:45:04;;;;;;;4.13;1.00;;;15.50;99.90;;;;;;5011928;28;20073;-75
2021/10/07 09:47:40;;;;;;;2.67;0.75;;;15.40;99.90;;;;;;5012091;28;20034;-75
2021/10/07 09:50:20;;;;;;;3.83;1.08;;;15.50;99.90;;;;;;5012005;28;20084;-75
2021/10/07 09:52:48;;;;;;;2.55;1.05;;;15.50;99.90;;;;;;5012594;28;20454;-75
2021/10/07 09:55:20;;;;;;;3.60;1.23;;;15.60;99.90;;;;;;5013702;28;20022;-75
2021/10/07 09:57:57;;;;;;;2.38;1.83;;;15.50;99.90;;;;;;5013270;28;20439;-75
2021/10/07 10:00:26;;;;;;;4.82;1.77;;;15.50;99.90;;;;;;5013034;28;20068;-75
2021/10/07 10:02:58;;;;;;;6.03;1.95;;;15.50;99.90;;;;;;5011799;28;20050;-75
2021/10/07 10:05:26;;;;;;;3.60;2.47;;;15.50;99.90;;;;;;5013137;28;20034;-75
2021/10/07 10:07:51;;;;;;;7.05;3.55;;;15.30;99.90;;;;;;5024873;23;20061;-74
2021/10/07 10:10:17;;;;;;;5.05;2.17;;;15.20;99.90;;;;;;5013187;28;20038;-74
2021/10/07 10:12:44;;;;;;;3.97;2.55;;;15.10;99.90;;;;;;5013024;28;20024;-74
2021/10/07 10:15:12;;;;;;;3.58;2.17;;;15.10;99.90;;;;;;5013062;28;20513;-75
2021/10/07 10:17:38;;;;;;;4.47;2.22;;;15.10;99.90;;;;;;5011722;28;20018;-76
2021/10/07 10:20:13;;;;;;;3.13;1.90;;;15.10;99.90;;;;;;5014450;28;20037;-75
2021/10/07 10:22:42;;;;;;;4.35;2.40;;;15.20;99.90;;;;;;5016921;28;20116;-75
2021/10/07 10:25:07;;;;;;;;;;;15.30;99.90;;;;;;5017369;28;20038;-76
2021/10/07 10:28:02;;;;;;;3.83;2.83;;;15.40;99.90;;;;;;5016348;28;20362;-76
2021/10/07 10:30:32;;;;;;;4.47;2.17;;;15.50;99.90;;;;;;5015078;28;20026;-76
2021/10/07 10:32:59;;;;;;;3.20;1.92;;;15.50;99.90;;;;;;5015129;28;20510;-76
2021/10/07 10:35:34;;;;;;;3.47;2.03;;;15.60;99.90;;;;;;5016796;28;20026;-77
2021/10/07 10:38:01;;;;;;;3.60;2.35;;;15.80;99.90;;;;;;5014987;28;20109;-77
2021/10/07 10:40:27;;;;;;;4.07;2.30;;;15.80;99.90;;;;;;5016170;28;20022;-77
2021/10/07 10:43:17;;;;;;;3.25;2.58;;;16.00;99.90;;;;;;5016148;28;20036;-77
2021/10/07 10:45:49;;;;;;;4.03;2.42;;;16.00;99.90;;;;;;5016083;28;20030;-78
2021/10/07 10:48:44;;;;;;;4.72;2.17;;;16.20;99.90;;;;;;5016259;28;20026;-77
2021/10/07 10:51:16;;;;;;;4.97;2.80;;;16.20;99.90;;;;;;5015913;28;20507;-76
2021/10/07 10:54:08;;;;;;;3.60;2.50;;;16.30;99.90;;;;;;5016226;28;20072;-76
2021/10/07 10:56:40;;;;;;;4.55;2.47;;;16.30;99.90;;;;;;5014720;28;20026;-79
2021/10/07 10:59:23;;;;;;;4.65;2.85;;;16.50;99.90;;;;;;5014501;28;20026;-77
2021/10/07 11:02:17;;;;;;;6.82;3.00;;;16.60;99.90;;;;;;5016099;28;20026;-77
2021/10/07 11:04:43;;;;;;;4.93;2.50;;;16.70;99.90;;;;;;5014427;28;20036;-77
2021/10/07 11:07:17;;;;;;;5.93;3.25;;;16.80;99.90;;;;;;5014370;28;20033;-77
2021/10/07 11:10:20;;;;;;;7.30;3.58;;;16.90;99.90;;;;;;5015675;28;20018;-74
2021/10/07 11:12:49;;;;;;;8.25;3.35;;;16.90;99.90;;;;;;5015620;28;20434;-75
2021/10/07 11:15:16;;;;;;;5.88;3.40;;;16.90;99.90;;;;;;5015459;28;20097;-75
2021/10/07 11:17:43;;;;;;;5.50;2.78;;;17.00;99.90;;;;;;5014192;28;20038;-76
2021/10/07 11:20:23;;;;;;;8.38;3.03;;;17.30;99.90;;;;;;5015398;28;20052;-76
2021/10/07 11:23:17;;;;;;;6.20;3.30;;;17.30;99.90;;;;;;5015426;28;20029;-75
2021/10/07 11:25:53;;;;;;;9.45;3.30;;;17.40;99.90;;;;;;5015271;28;20029;-75
2021/10/07 11:28:37;;;;;;;4.25;2.70;;;17.50;99.90;;;;;;5014023;28;20033;-76
2021/10/07 11:31:10;;;;;;;6.85;3.10;;;17.60;99.90;;;;;;5014164;28;20145;-76
2021/10/07 11:33:37;;;;;;;5.85;2.30;;;17.70;99.90;;;;;;5015627;28;20045;-76
2021/10/07 11:36:05;;;;;;;3.70;2.13;;;17.80;99.90;;;;;;5015324;28;20033;-76
2021/10/07 11:38:31;;;;;;;9.80;3.28;;;17.80;99.90;;;;;;5015307;28;20028;-76
2021/10/07 11:40:58;;;;;;;4.40;2.60;;;17.90;99.90;;;;;;5014009;28;20457;-76
2021/10/07 11:43:29;;;;;;;4.85;2.90;;;17.90;99.90;;;;;;5015305;28;20022;-76
2021/10/07 11:45:56;;;;;;;3.20;2.17;;;17.90;99.90;;;;;;5013729;28;20026;-76
2021/10/07 11:48:23;;;;;;;4.18;2.30;;;17.80;99.90;;;;;;5013729;28;20038;-76
2021/10/07 11:50:54;;;;;;;6.43;3.60;;;17.60;99.90;;;;;;5015444;28;20018;-76
2021/10/07 11:53:30;;;;;;;6.88;2.92;;;17.50;99.90;;;;;;5013745;28;20440;-76
2021/10/07 11:55:56;;;;;;;6.35;3.05;;;17.50;99.90;;;;;;5013610;28;20390;-77
2021/10/07 11:58:25;;;;;;;6.57;3.05;;;17.80;99.90;;;;;;5014802;28;20029;-77
2021/10/07 12:00:51;;;;;;;4.47;2.90;;;17.80;99.90;;;;;;5014708;28;20034;-76
2021/10/07 12:03:21;;;;;;;6.25;2.50;;;17.80;99.90;;;;;;5015122;28;20030;-77
2021/10/07 12:05:53;;;;;;;4.97;2.25;;;17.90;99.90;;;;;;5014918;28;20057;-77
2021/10/07 12:08:19;;;;;;;5.35;3.20;;;18.00;99.90;;;;;;5013316;28;20030;-77
2021/10/07 12:10:54;;;;;;;4.97;2.88;;;18.10;99.90;;;;;;5014598;28;20101;-75
2021/10/07 12:13:23;;;;;;;5.15;2.50;;;18.30;99.90;;;;;;5014700;28;20018;-75
2021/10/07 12:15:52;;;;;;;3.40;2.33;;;18.40;99.90;;;;;;5014566;28;20482;-75
2021/10/07 12:18:18;;;;;;;3.95;1.95;;;18.40;99.90;;;;;;5014548;28;20395;-75
2021/10/07 12:21:03;;;;;;;2.95;2.05;;;18.70;99.90;;;;;;5014402;28;20391;-75
2021/10/07 12:23:31;;;;;;;3.63;2.13;;;18.90;99.90;;;;;;5013614;28;20048;-78
2021/10/07 12:26:01;;;;;;;3.42;2.13;;;18.90;99.90;;;;;;5013418;28;20026;-78
2021/10/07 12:28:27;;;;;;;4.00;2.55;;;18.90;99.90;;;;;;5014680;28;20030;-78
2021/10/07 12:31:02;;;;;;;3.88;2.15;;;18.90;99.90;;;;;;5014567;28;20029;-78
2021/10/07 12:33:31;;;;;;;3.35;2.03;;;18.90;99.90;;;;;;5013239;28;20022;-78
2021/10/07 12:36:09;;;;;;;6.15;3.35;;;18.90;99.90;;;;;;5013306;28;20554;-78
2021/10/07 12:38:52;;;;;;;6.90;2.60;;;18.90;99.90;;;;;;5016164;28;20034;-79
2021/10/07 12:41:51;;;;;;;3.92;2.42;;;19.00;99.90;;;;;;5013659;28;20030;-78
2021/10/07 12:44:23;;;;;;;8.48;3.60;;;19.10;99.90;;;;;;5014926;28;20040;-78
2021/10/07 12:46:51;;;;;;;4.05;2.40;;;19.30;99.90;;;;;;5014673;28;20025;-79
2021/10/07 12:49:34;;;;;;;8.45;2.95;;;19.40;99.90;;;;;;5015970;28;20364;-78
2021/10/07 12:52:00;;;;;;;5.53;2.38;;;19.70;99.90;;;;;;5014027;28;20029;-78
2021/10/07 12:54:28;;;;;;;4.15;2.25;;;19.80;99.90;;;;;;5014505;28;20014;-78
2021/10/07 12:56:54;;;;;;;3.50;1.80;;;19.80;99.90;;;;;;5012763;28;20175;-77
2021/10/07 12:59:20;;;;;;;5.85;1.98;;;19.80;99.90;;;;;;5013703;28;20026;-76